Time;durP1;ratioP1;P1;durP2;ratioP2;P2;SDS_P1;SDS_P2;PMS_P1;PMS_P2;Temp;Humidity;BMP_temperature;BMP_pressure;BME280_temperature;BME280_humidity;BME280_pressure;Samples;Min_cycle;Max_cycle;Signal;HPM_P1;HPM_P2
2023/04/20 00:02:16;;;;;;;;;;;;;;;;;;5095015;28;19908;-68
2023/04/20 00:04:42;;;;;;;;;;;;;;;;;;5095456;28;19916;-68
2023/04/20 00:07:08;;;;;;;;;;;;;;;;;;5077208;28;19915;-67
2023/04/20 00:09:34;;;;;;;;;;;;;;;;;;5094992;28;19953;-67
2023/04/20 00:12:00;;;;;;;;;;;;;;;;;;5095198;28;19965;-67
2023/04/20 00:14:26;;;;;;;;;;;;;;;;;;5095288;28;19916;-67
2023/04/20 00:16:52;;;;;;;;;;;;;;;;;;5094933;28;19912;-68
2023/04/20 00:19:19;;;;;;;;;;;;;;;;;;5095302;28;19908;-68
2023/04/20 00:21:45;;;;;;;;;;;;;;;;;;5095482;28;19912;-68
2023/04/20 00:24:11;;;;;;;;;;;;;;;;;;5094695;28;20284;-68
2023/04/20 00:26:37;;;;;;;;;;;;;;;;;;5094992;28;20283;-68
2023/04/20 00:29:03;;;;;;;;;;;;;;;;;;5094819;28;20313;-68
2023/04/20 00:31:29;;;;;;;;;;;;;;;;;;5095158;28;20314;-68
2023/04/20 00:33:55;;;;;;;;;;;;;;;;;;5094832;28;20330;-69
2023/04/20 00:36:21;;;;;;;;;;;;;;;;;;5094380;28;20331;-67
2023/04/20 00:38:47;;;;;;;;;;;;;;;;;;5095366;28;19912;-68
2023/04/20 00:41:13;;;;;;;;;;;;;;;;;;5094709;28;19960;-68
2023/04/20 00:43:39;;;;;;;;;;;;;;;;;;5075866;28;19978;-67
2023/04/20 00:46:05;;;;;;;;;;;;;;;;;;5094483;28;20260;-67
2023/04/20 00:48:31;;;;;;;;;;;;;;;;;;5094577;28;20312;-67
2023/04/20 00:50:57;;;;;;;;;;;;;;;;;;5094316;28;19908;-67
2023/04/20 00:53:22;;;;;;;;;;;;;;;;;;5094030;28;19915;-68
2023/04/20 00:55:48;;;;;;;;;;;;;;;;;;5076272;28;19912;-68
2023/04/20 00:58:14;;;;;;;;;;;;;;;;;;5094066;28;19908;-67
2023/04/20 01:00:40;;;;;;;;;;;;;;;;;;5094601;28;20344;-68
2023/04/20 01:03:06;;;;;;;;;;;;;;;;;;5094422;28;19952;-67
2023/04/20 01:05:32;;;;;;;;;;;;;;;;;;5094052;28;19939;-68
2023/04/20 01:07:58;;;;;;;;;;;;;;;;;;5094444;28;20364;-68
2023/04/20 01:10:24;;;;;;;;;;;;;;;;;;5094342;28;20395;-68
2023/04/20 01:12:50;;;;;;;;;;;;;;;;;;5093825;28;19912;-68
2023/04/20 01:15:16;;;;;;;;;;;;;;;;;;5094111;28;19956;-67
2023/04/20 01:17:42;;;;;;;;;;;;;;;;;;5075999;28;19908;-69
2023/04/20 01:20:08;;;;;;;;;;;;;;;;;;5093705;28;20007;-68
2023/04/20 01:22:34;;;;;;;;;;;;;;;;;;5093850;28;19916;-68
2023/04/20 01:25:00;;;;;;;;;;;;;;;;;;5093796;28;19912;-69
2023/04/20 01:27:26;;;;;;;;;;;;;;;;;;5093439;28;20376;-67
2023/04/20 01:29:52;;;;;;;;;;;;;;;;;;5094482;28;19909;-67
2023/04/20 01:32:18;;;;;;;;;;;;;;;;;;5093812;28;20271;-68
2023/04/20 01:34:44;;;;;;;;;;;;;;;;;;5093479;28;20318;-68
2023/04/20 01:37:10;;;;;;;;;;;;;;;;;;5075582;28;19912;-67
2023/04/20 01:39:36;;;;;;;;;;;;;;;;;;5093665;28;19912;-68
2023/04/20 01:42:02;;;;;;;;;;;;;;;;;;5093712;28;19915;-67
2023/04/20 01:44:28;;;;;;;;;;;;;;;;;;5075562;28;19920;-68
2023/04/20 01:46:54;;;;;;;;;;;;;;;;;;5093431;28;19908;-67
2023/04/20 01:49:20;;;;;;;;;;;;;;;;;;5093884;28;19912;-67
2023/04/20 01:51:46;;;;;;;;;;;;;;;;;;5093660;28;19965;-67
2023/04/20 01:54:11;;;;;;;;;;;;;;;;;;5093319;28;19943;-67
2023/04/20 01:56:37;;;;;;;;;;;;;;;;;;5093647;28;19981;-67
2023/04/20 01:59:03;;;;;;;;;;;;;;;;;;5093733;28;20049;-67
2023/04/20 02:01:29;;;;;;;;;;;;;;;;;;5075381;28;19909;-67
2023/04/20 02:03:55;;;;;;;;;;;;;;;;;;5093480;28;19920;-67
2023/04/20 02:06:21;;;;;;;;;;;;;;;;;;5097253;28;19914;-67
2023/04/20 02:08:47;;;;;;;;;;;;;;;;;;5097227;28;20350;-67
2023/04/20 02:11:13;;;;;;;;;;;;;;;;;;5097618;28;20004;-67
2023/04/20 02:13:39;;;;;;;;;;;;;;;;;;5097555;28;19908;-67
2023/04/20 02:16:05;;;;;;;;;;;;;;;;;;5097151;28;19919;-67
2023/04/20 02:18:31;;;;;;;;;;;;;;;;;;5097338;28;19998;-67
2023/04/20 02:20:57;;;;;;;;;;;;;;;;;;5097742;28;19912;-67
2023/04/20 02:23:23;;;;;;;;;;;;;;;;;;5096801;28;19969;-68
2023/04/20 02:25:49;;;;;;;;;;;;;;;;;;5097264;28;19908;-68
2023/04/20 02:28:15;;;;;;;;;;;;;;;;;;5079026;28;19912;-68
2023/04/20 02:30:42;;;;;;;;;;;;;;;;;;5096892;28;19908;-68
2023/04/20 02:33:08;;;;;;;;;;;;;;;;;;5097270;28;19909;-68
2023/04/20 02:35:34;;;;;;;;;;;;;;;;;;5097108;28;19908;-68
2023/04/20 02:38:00;;;;;;;;;;;;;;;;;;5096643;28;19915;-68
2023/04/20 02:40:25;;;;;;;;;;;;;;;;;;5097042;28;20307;-67
2023/04/20 02:42:51;;;;;;;;;;;;;;;;;;5096326;28;20564;-68
2023/04/20 02:45:17;;;;;;;;;;;;;;;;;;5097574;28;20344;-67
2023/04/20 02:47:43;;;;;;;;;;;;;;;;;;5097277;28;20344;-68
2023/04/20 02:50:09;;;;;;;;;;;;;;;;;;5096619;28;20364;-67
2023/04/20 02:52:35;;;;;;;;;;;;;;;;;;5096837;28;19912;-67
2023/04/20 02:55:01;;;;;;;;;;;;;;;;;;5096764;28;19914;-67
2023/04/20 02:57:27;;;;;;;;;;;;;;;;;;5096357;28;19915;-67
2023/04/20 02:59:53;;;;;;;;;;;;;;;;;;5096696;28;20276;-67
2023/04/20 03:02:19;;;;;;;;;;;;;;;;;;5096603;28;20318;-67
2023/04/20 03:04:45;;;;;;;;;;;;;;;;;;5077850;28;20333;-68
2023/04/20 03:07:11;;;;;;;;;;;;;;;;;;5096604;28;20376;-68
2023/04/20 03:09:37;;;;;;;;;;;;;;;;;;5096690;28;19955;-68
2023/04/20 03:12:03;;;;;;;;;;;;;;;;;;5077928;28;20296;-67
2023/04/20 03:14:29;;;;;;;;;;;;;;;;;;5096221;28;19908;-67
2023/04/20 03:16:55;;;;;;;;;;;;;;;;;;5077397;28;20038;-68
2023/04/20 03:19:21;;;;;;;;;;;;;;;;;;5077703;28;19998;-68
2023/04/20 03:21:47;;;;;;;;;;;;;;;;;;5078012;28;19908;-68
2023/04/20 03:24:13;;;;;;;;;;;;;;;;;;5096309;28;19916;-68
2023/04/20 03:26:40;;;;;;;;;;;;;;;;;;5095864;28;19908;-68
2023/04/20 03:29:06;;;;;;;;;;;;;;;;;;5077951;28;19961;-68
2023/04/20 03:31:32;;;;;;;;;;;;;;;;;;5095998;28;19912;-68
2023/04/20 03:33:57;;;;;;;;;;;;;;;;;;5077554;28;20019;-67
2023/04/20 03:36:23;;;;;;;;;;;;;;;;;;5096021;28;19913;-68
2023/04/20 03:38:49;;;;;;;;;;;;;;;;;;5095949;28;19908;-68
2023/04/20 03:41:15;;;;;;;;;;;;;;;;;;5095465;28;19912;-68
2023/04/20 03:43:41;;;;;;;;;;;;;;;;;;5095633;28;19920;-68
2023/04/20 03:46:07;;;;;;;;;;;;;;;;;;5077223;28;20019;-68
2023/04/20 03:48:33;;;;;;;;;;;;;;;;;;5095764;28;19908;-68
2023/04/20 03:50:59;;;;;;;;;;;;;;;;;;5095947;28;19998;-69
2023/04/20 03:53:27;;;;;;;;;;;;;;;;;;5095692;28;20010;-69
2023/04/20 03:55:53;;;;;;;;;;;;;;;;;;5095558;28;19916;-68
2023/04/20 03:58:20;;;;;;;;;;;;;;;;;;5095627;28;19908;-67
2023/04/20 04:00:47;;;;;;;;;;;;;;;;;;5077015;28;19908;-67
2023/04/20 04:03:13;;;;;;;;;;;;;;;;;;5095435;28;19916;-67
2023/04/20 04:05:38;;;;;;;;;;;;;;;;;;5095494;28;20401;-67
2023/04/20 04:08:04;;;;;;;;;;;;;;;;;;5095068;28;20371;-67
2023/04/20 04:10:30;;;;;;;;;;;;;;;;;;5095188;28;19908;-68
2023/04/20 04:12:56;;;;;;;;;;;;;;;;;;5095099;28;19915;-67
2023/04/20 04:15:22;;;;;;;;;;;;;;;;;;5094789;28;20002;-67
2023/04/20 04:17:48;;;;;;;;;;;;;;;;;;5095270;28;19915;-68
2023/04/20 04:20:14;;;;;;;;;;;;;;;;;;5095180;28;19908;-69
2023/04/20 04:22:40;;;;;;;;;;;;;;;;;;5094594;28;20252;-68
2023/04/20 04:25:06;;;;;;;;;;;;;;;;;;5095078;28;19908;-67
2023/04/20 04:27:36;;;;;;;;;;;;;;;;;;5094116;28;20006;-69
2023/04/20 04:30:03;;;;;;;;;;;;;;;;;;5094740;28;20308;-69
2023/04/20 04:32:29;;;;;;;;;;;;;;;;;;5095021;28;19977;-68
2023/04/20 04:34:55;;;;;;;;;;;;;;;;;;5094916;28;19912;-70
2023/04/20 04:37:21;;;;;;;;;;;;;;;;;;5094410;28;20337;-69
2023/04/20 04:39:47;;;;;;;;;;;;;;;;;;5094815;28;19995;-67
2023/04/20 04:42:13;;;;;;;;;;;;;;;;;;5095143;28;20276;-70
2023/04/20 04:44:39;;;;;;;;;;;;;;;;;;5094116;28;19920;-68
2023/04/20 04:47:05;;;;;;;;;;;;;;;;;;5094665;28;20390;-68
2023/04/20 04:49:31;;;;;;;;;;;;;;;;;;5094271;28;19915;-68
2023/04/20 04:51:57;;;;;;;;;;;;;;;;;;5076372;28;20003;-68
2023/04/20 04:54:23;;;;;;;;;;;;;;;;;;5095751;28;19908;-70
2023/04/20 04:56:49;;;;;;;;;;;;;;;;;;5094336;28;19914;-68
2023/04/20 04:59:14;;;;;;;;;;;;;;;;;;5094424;28;19912;-69
2023/04/20 05:01:40;;;;;;;;;;;;;;;;;;5094451;28;20388;-69
2023/04/20 05:04:06;;;;;;;;;;;;;;;;;;5089890;28;20388;-66
2023/04/20 05:06:32;;;;;;;;;;;;;;;;;;5093511;28;19912;-69
2023/04/20 05:08:58;;;;;;;;;;;;;;;;;;5093982;28;19952;-68
2023/04/20 05:11:24;;;;;;;;;;;;;;;;;;5093550;28;19912;-69
2023/04/20 05:13:50;;;;;;;;;;;;;;;;;;5093769;28;19999;-65
2023/04/20 05:16:16;;;;;;;;;;;;;;;;;;5093077;28;19944;-67
2023/04/20 05:18:42;;;;;;;;;;;;;;;;;;5091467;28;19951;-66
2023/04/20 05:21:08;;;;;;;;;;;;;;;;;;5091740;28;19909;-66
2023/04/20 05:23:34;;;;;;;;;;;;;;;;;;5091910;28;19981;-67
2023/04/20 05:26:00;;;;;;;;;;;;;;;;;;5090300;28;20267;-67
2023/04/20 05:28:26;;;;;;;;;;;;;;;;;;5086797;28;19912;-67
2023/04/20 05:30:54;;;;;;;;;;;;;;;;;;5089077;28;20376;-67
2023/04/20 05:33:20;;;;;;;;;;;;;;;;;;5074350;28;20534;-65
2023/04/20 05:35:46;;;;;;;;;;;;;;;;;;5074243;28;20015;-65
2023/04/20 05:38:11;;;;;;;;;;;;;;;;;;5089807;28;20364;-65
2023/04/20 05:40:37;;;;;;;;;;;;;;;;;;5073965;28;20389;-66
2023/04/20 05:43:03;;;;;;;;;;;;;;;;;;5086597;28;20778;-66
2023/04/20 05:45:33;;;;;;;;;;;;;;;;;;5089314;28;19908;-66
2023/04/20 05:48:00;;;;;;;;;;;;;;;;;;5091239;28;20284;-66
2023/04/20 05:50:26;;;;;;;;;;;;;;;;;;5090597;28;19923;-66
2023/04/20 05:52:51;;;;;;;;;;;;;;;;;;5091263;28;19908;-64
2023/04/20 05:55:17;;;;;;;;;;;;;;;;;;5087526;28;19918;-65
2023/04/20 05:57:43;;;;;;;;;;;;;;;;;;5091610;28;19934;-65
2023/04/20 06:00:10;;;;;;;;;;;;;;;;;;5091177;28;19909;-64
2023/04/20 06:02:36;;;;;;;;;;;;;;;;;;5092535;28;19919;-64
2023/04/20 06:05:02;;;;;;;;;;;;;;;;;;5073873;28;20286;-64
2023/04/20 06:07:28;;;;;;;;;;;;;;;;;;5092300;28;19915;-65
2023/04/20 06:09:54;;;;;;;;;;;;;;;;;;5091952;28;20023;-65
2023/04/20 06:12:20;;;;;;;;;;;;;;;;;;5090925;28;20004;-65
2023/04/20 06:14:46;;;;;;;;;;;;;;;;;;5066501;28;19954;-66
2023/04/20 06:17:13;;;;;;;;;;;;;;;;;;5060978;28;19920;-66
2023/04/20 06:19:39;;;;;;;;;;;;;;;;;;5092528;28;19914;-67
2023/04/20 06:22:05;;;;;;;;;;;;;;;;;;5090887;28;19912;-64
2023/04/20 06:24:31;;;;;;;;;;;;;;;;;;5090819;28;20057;-66
2023/04/20 06:26:57;;;;;;;;;;;;;;;;;;5073595;28;19916;-66
2023/04/20 06:29:23;;;;;;;;;;;;;;;;;;5091568;28;19913;-67
2023/04/20 06:31:49;;;;;;;;;;;;;;;;;;5089696;28;20396;-67
2023/04/20 06:34:15;;;;;;;;;;;;;;;;;;5087446;28;19999;-66
2023/04/20 06:36:41;;;;;;;;;;;;;;;;;;5088615;28;19915;-65
2023/04/20 06:39:08;;;;;;;;;;;;;;;;;;5069486;28;19915;-66
2023/04/20 06:41:34;;;;;;;;;;;;;;;;;;5089275;28;19908;-66
2023/04/20 06:44:00;;;;;;;;;;;;;;;;;;5083653;28;19920;-67
2023/04/20 06:46:26;;;;;;;;;;;;;;;;;;5089039;28;19920;-68
2023/04/20 06:48:52;;;;;;;;;;;;;;;;;;5090770;28;19912;-67
2023/04/20 06:51:18;;;;;;;;;;;;;;;;;;5075260;28;19943;-67
2023/04/20 06:53:44;;;;;;;;;;;;;;;;;;5076671;28;19947;-67
2023/04/20 06:56:11;;;;;;;;;;;;;;;;;;5094833;28;19977;-67
2023/04/20 06:58:36;;;;;;;;;;;;;;;;;;5094624;28;19919;-68
2023/04/20 07:01:02;;;;;;;;;;;;;;;;;;5094737;28;19908;-65
2023/04/20 07:03:29;;;;;;;;;;;;;;;;;;5075939;28;19912;-67
2023/04/20 07:05:55;;;;;;;;;;;;;;;;;;5092792;28;19912;-67
2023/04/20 07:08:21;;;;;;;;;;;;;;;;;;5093339;28;19915;-66
2023/04/20 07:10:47;;;;;;;;;;;;;;;;;;5094136;28;19908;-67
2023/04/20 07:13:12;;;;;;;;;;;;;;;;;;5094221;28;19912;-68
2023/04/20 07:15:38;;;;;;;;;;;;;;;;;;5093927;28;19908;-69
2023/04/20 07:18:47;;;;;;;;;;;;;;;;;;5101629;27;20376;-65
2023/04/20 07:21:14;;;;;;;;;;;;;;;;;;5086524;28;19916;-66
2023/04/20 07:23:40;;;;;;;;;;;;;;;;;;5085763;28;19908;-66
2023/04/20 07:26:06;;;;;;;;;;;;;;;;;;5085263;28;19969;-66
2023/04/20 07:28:32;;;;;;;;;;;;;;;;;;5085844;28;19909;-67
2023/04/20 07:30:58;;;;;;;;;;;;;;;;;;5086254;28;19908;-67
2023/04/20 07:35:58;;;;;;;;;;;;;;;;;;5084577;27;19916;-65
2023/04/20 07:42:44;;;;;;;;;;;;;;;;;;5108382;27;19922;-66
2023/04/20 07:45:10;;;;;;;;;;;;;;;;;;5105490;28;19923;-65
2023/04/20 07:47:36;;;;;;;;;;;;;;;;;;5105730;28;19912;-66
2023/04/20 07:50:02;;;;;;;;;;;;;;;;;;5107365;28;19908;-65
2023/04/20 07:54:04;;;;;;;;;;;;;;;;;;5088081;27;20368;-66
2023/04/20 07:56:48;;;;;;;;;;;;;;;;;;5088585;27;20303;-65
2023/04/20 07:59:14;;;;;;;;;;;;;;;;;;5089777;28;19912;-65
2023/04/20 08:01:40;;;;;;;;;;;;;;;;;;5089698;28;20390;-66
2023/04/20 08:04:06;;;;;;;;;;;;;;;;;;5087901;28;19916;-66
2023/04/20 08:06:32;;;;;;;;;;;;;;;;;;5086913;28;20570;-65
2023/04/20 08:08:58;;;;;;;;;;;;;;;;;;5087175;28;20450;-66
2023/04/20 08:11:25;;;;;;;;;;;;;;;;;;5085767;28;20554;-65
2023/04/20 08:13:51;;;;;;;;;;;;;;;;;;5085458;28;19908;-65
2023/04/20 08:20:44;;;;;;;;;;;;;;;;;;5086468;27;19917;-64
2023/04/20 08:23:10;;;;;;;;;;;;;;;;;;5086159;28;19923;-65
2023/04/20 08:27:34;;;;;;;;;;;;;;;;;;5086850;27;19916;-64
2023/04/20 08:30:03;;;;;;;;;;;;;;;;;;5089277;28;19913;-65
2023/04/20 08:32:28;;;;;;;;;;;;;;;;;;5082865;28;19999;-64
2023/04/20 08:34:55;;;;;;;;;;;;;;;;;;5089430;28;20016;-65
2023/04/20 08:39:23;;;;;;;;;;;;;;;;;;5090450;27;19921;-64
2023/04/20 08:41:52;;;;;;;;;;;;;;;;;;5089831;28;19955;-62
2023/04/20 08:48:16;;;;;;;;;;;;;;;;;;5089992;27;19912;-64
2023/04/20 08:50:43;;;;;;;;;;;;;;;;;;5090153;28;19912;-65
2023/04/20 08:53:09;;;;;;;;;;;;;;;;;;5090103;28;19952;-66
2023/04/20 08:59:13;;;;;;;;;;;;;;;;;;5088649;27;20411;-64
2023/04/20 09:01:42;;;;;;;;;;;;;;;;;;5089525;28;20284;-63
2023/04/20 09:04:08;;;;;;;;;;;;;;;;;;5087632;28;19909;-64
2023/04/20 09:06:52;;;;;;;;;;;;;;;;;;5171705;27;19919;-64
2023/04/20 09:20:22;;;;;;;;;;;;;;;;;;5085586;27;20397;-63
2023/04/20 09:22:49;;;;;;;;;;;;;;;;;;5087196;28;19912;-64
2023/04/20 09:25:46;;;;;;;;;;;;;;;;;;5090430;27;19913;-63
2023/04/20 09:28:23;;;;;;;;;;;;;;;;;;5080766;27;19931;-66
2023/04/20 09:30:50;;;;;;;;;;;;;;;;;;5083944;28;19912;-65
2023/04/20 09:35:09;;;;;;;;;;;;;;;;;;5088135;27;19923;-64
2023/04/20 09:37:35;;;;;;;;;;;;;;;;;;5090031;28;19912;-64
2023/04/20 09:43:03;;;;;;;;;;;;;;;;;;5090064;27;19916;-64
2023/04/20 09:45:29;;;;;;;;;;;;;;;;;;5089982;28;19919;-63
2023/04/20 09:47:55;;;;;;;;;;;;;;;;;;5089757;28;19908;-64
2023/04/20 09:50:21;;;;;;;;;;;;;;;;;;5087254;28;19909;-64
2023/04/20 09:52:48;;;;;;;;;;;;;;;;;;5085887;28;19915;-65
2023/04/20 09:56:21;;;;;;;;;;;;;;;;;;5124047;27;19915;-64
2023/04/20 10:05:07;;;;;;;;;;;;;;;;;;5150511;27;19918;-64
2023/04/20 10:08:43;;;;;;;;;;;;;;;;;;5090023;27;19912;-65
2023/04/20 10:11:10;;;;;;;;;;;;;;;;;;5088255;28;19913;-65
2023/04/20 10:13:36;;;;;;;;;;;;;;;;;;5088529;28;19955;-66
2023/04/20 10:16:02;;;;;;;;;;;;;;;;;;5089980;28;19927;-68
2023/04/20 10:20:38;;;;;;;;;;;;;;;;;;5090310;27;19917;-65
2023/04/20 10:23:04;;;;;;;;;;;;;;;;;;5089179;28;19940;-66
2023/04/20 10:27:40;;;;;;;;;;;;;;;;;;5151573;27;20021;-66
2023/04/20 10:30:06;;;;;;;;;;;;;;;;;;5152037;27;19954;-65
2023/04/20 10:32:32;;;;;;;;;;;;;;;;;;5152455;27;20378;-65
2023/04/20 10:34:58;;;;;;;;;;;;;;;;;;5151867;27;19907;-65
2023/04/20 10:37:24;;;;;;;;;;;;;;;;;;5152347;27;20005;-65
2023/04/20 10:39:50;;;;;;;;;;;;;;;;;;5151520;27;19907;-65
2023/04/20 10:42:16;;;;;;;;;;;;;;;;;;5152267;27;20423;-66
2023/04/20 10:44:42;;;;;;;;;;;;;;;;;;5152239;27;19907;-64
2023/04/20 10:49:44;;;;;;;;;;;;;;;;;;5089731;27;19919;-65
2023/04/20 10:52:10;;;;;;;;;;;;;;;;;;5090667;28;19912;-66
2023/04/20 10:54:36;;;;;;;;;;;;;;;;;;5090883;28;19954;-65
2023/04/20 10:57:02;;;;;;;;;;;;;;;;;;5090475;28;19912;-65
2023/04/20 10:59:28;;;;;;;;;;;;;;;;;;5089477;28;20258;-65
2023/04/20 11:02:55;;;;;;;;;;;;;;;;;;5090614;27;19912;-67
2023/04/20 11:07:56;;;;;;;;;;;;;;;;;;5111447;27;19922;-64
2023/04/20 11:12:02;;;;;;;;;;;;;;;;;;5091143;27;19913;-66
2023/04/20 11:14:28;;;;;;;;;;;;;;;;;;5091313;28;19912;-67
2023/04/20 11:18:15;;;;;;;;;;;;;;;;;;5070710;28;19919;-65
2023/04/20 11:20:41;;;;;;;;;;;;;;;;;;5069724;28;20008;-67
2023/04/20 11:23:07;;;;;;;;;;;;;;;;;;5065525;28;19931;-66
2023/04/20 11:25:33;;;;;;;;;;;;;;;;;;5070541;28;20372;-69
2023/04/20 11:29:40;;;;;;;;;;;;;;;;;;5111739;27;19996;-66
2023/04/20 11:32:06;;;;;;;;;;;;;;;;;;5111031;28;20348;-66
2023/04/20 11:35:27;;;;;;;;;;;;;;;;;;5152906;27;20283;-67
2023/04/20 11:37:56;;;;;;;;;;;;;;;;;;5152348;27;19961;-67
2023/04/20 11:40:22;;;;;;;;;;;;;;;;;;5152515;27;19953;-67
2023/04/20 11:42:48;;;;;;;;;;;;;;;;;;5152345;27;19911;-67
2023/04/20 11:45:14;;;;;;;;;;;;;;;;;;5152157;27;19911;-67
2023/04/20 11:47:40;;;;;;;;;;;;;;;;;;5139957;27;19915;-68
2023/04/20 11:50:06;;;;;;;;;;;;;;;;;;5131811;28;19908;-68
2023/04/20 11:52:32;;;;;;;;;;;;;;;;;;5131157;28;19907;-69
2023/04/20 11:54:59;;;;;;;;;;;;;;;;;;5113285;28;19916;-67
2023/04/20 11:57:25;;;;;;;;;;;;;;;;;;5113366;28;19994;-67
2023/04/20 11:59:51;;;;;;;;;;;;;;;;;;5112720;28;19996;-67
2023/04/20 12:02:17;;;;;;;;;;;;;;;;;;5131455;28;19918;-67
2023/04/20 12:08:23;;;;;;;;;;;;;;;;;;5091138;27;19923;-67
2023/04/20 12:11:59;;;;;;;;;;;;;;;;;;5173817;27;19911;-66
2023/04/20 12:15:06;;;;;;;;;;;;;;;;;;5091433;27;20265;-66
2023/04/20 12:19:20;;;;;;;;;;;;;;;;;;5091267;27;19917;-68
2023/04/20 12:21:46;;;;;;;;;;;;;;;;;;5089316;28;19965;-67
2023/04/20 12:24:12;;;;;;;;;;;;;;;;;;5087819;28;19908;-67
2023/04/20 12:29:29;;;;;;;;;;;;;;;;;;5088086;27;19938;-68
2023/04/20 12:31:55;;;;;;;;;;;;;;;;;;5090295;28;20376;-67
2023/04/20 12:36:04;;;;;;;;;;;;;;;;;;5153035;27;19922;-68
2023/04/20 12:38:30;;;;;;;;;;;;;;;;;;5134244;27;20390;-69
2023/04/20 12:41:30;;;;;;;;;;;;;;;;;;5090878;27;19916;-69
2023/04/20 12:44:37;;;;;;;;;;;;;;;;;;5091760;27;19923;-70
2023/04/20 12:49:13;;;;;;;;;;;;;;;;;;5110035;27;19912;-69
2023/04/20 12:51:39;;;;;;;;;;;;;;;;;;5109461;28;19958;-68
2023/04/20 12:56:05;;;;;;;;;;;;;;;;;;5068509;28;20300;-68
2023/04/20 13:01:19;;;;;;;;;;;;;;;;;;5151706;27;19911;-68
2023/04/20 13:06:09;;;;;;;;;;;;;;;;;;5071341;28;19916;-69
2023/04/20 13:08:36;;;;;;;;;;;;;;;;;;5071388;28;19936;-69
2023/04/20 13:11:02;;;;;;;;;;;;;;;;;;5070629;28;19971;-69
2023/04/20 13:13:28;;;;;;;;;;;;;;;;;;5071238;28;19962;-69
2023/04/20 13:15:54;;;;;;;;;;;;;;;;;;5070573;28;20331;-69
2023/04/20 13:18:22;;;;;;;;;;;;;;;;;;5070897;28;20337;-68
2023/04/20 13:21:39;;;;;;;;;;;;;;;;;;5091888;27;19916;-70
2023/04/20 13:26:02;;;;;;;;;;;;;;;;;;5092048;27;19916;-69
2023/04/20 13:28:29;;;;;;;;;;;;;;;;;;5091349;28;19919;-70
2023/04/20 13:30:56;;;;;;;;;;;;;;;;;;5090753;28;20003;-70
2023/04/20 13:33:22;;;;;;;;;;;;;;;;;;5091225;28;19917;-69
2023/04/20 13:35:48;;;;;;;;;;;;;;;;;;5091262;28;19952;-70
2023/04/20 13:38:38;;;;;;;;;;;;;;;;;;5091146;27;19917;-68
2023/04/20 13:41:04;;;;;;;;;;;;;;;;;;5091768;28;20423;-70
2023/04/20 13:43:30;;;;;;;;;;;;;;;;;;5089881;28;19909;-69
2023/04/20 13:45:56;;;;;;;;;;;;;;;;;;5090922;28;19915;-69
2023/04/20 13:48:22;;;;;;;;;;;;;;;;;;5091176;28;20365;-69
2023/04/20 13:50:48;;;;;;;;;;;;;;;;;;5091247;28;19915;-69
2023/04/20 13:53:14;;;;;;;;;;;;;;;;;;5090725;28;20386;-70
2023/04/20 13:55:40;;;;;;;;;;;;;;;;;;5090952;28;19908;-68
2023/04/20 13:58:06;;;;;;;;;;;;;;;;;;5090600;28;20373;-69
2023/04/20 14:00:32;;;;;;;;;;;;;;;;;;5090863;28;20280;-69
2023/04/20 14:02:58;;;;;;;;;;;;;;;;;;5090850;28;19982;-70
2023/04/20 14:05:24;;;;;;;;;;;;;;;;;;5091097;28;20281;-69
2023/04/20 14:07:50;;;;;;;;;;;;;;;;;;5090834;28;20289;-70
2023/04/20 14:10:16;;;;;;;;;;;;;;;;;;5090824;28;19915;-69
2023/04/20 14:12:42;;;;;;;;;;;;;;;;;;5089008;28;19919;-70
2023/04/20 14:15:08;;;;;;;;;;;;;;;;;;5090645;28;19963;-69
2023/04/20 14:17:34;;;;;;;;;;;;;;;;;;5090837;28;19962;-70
2023/04/20 14:20:00;;;;;;;;;;;;;;;;;;5088949;28;19958;-69
2023/04/20 14:22:32;;;;;;;;;;;;;;;;;;5090398;28;19908;-69
2023/04/20 14:24:58;;;;;;;;;;;;;;;;;;5089190;28;19909;-69
2023/04/20 14:27:24;;;;;;;;;;;;;;;;;;5090045;28;19965;-68
2023/04/20 14:29:50;;;;;;;;;;;;;;;;;;5090410;28;19908;-70
2023/04/20 14:32:17;;;;;;;;;;;;;;;;;;5089066;28;19909;-70
2023/04/20 14:34:43;;;;;;;;;;;;;;;;;;5090025;28;19908;-70
2023/04/20 14:37:09;;;;;;;;;;;;;;;;;;5098340;28;19927;-69
2023/04/20 14:39:35;;;;;;;;;;;;;;;;;;5110637;28;20426;-70
2023/04/20 14:42:01;;;;;;;;;;;;;;;;;;5110061;28;19912;-69
2023/04/20 14:44:27;;;;;;;;;;;;;;;;;;5110456;28;19953;-69
2023/04/20 14:46:53;;;;;;;;;;;;;;;;;;5110402;28;19923;-69
2023/04/20 14:49:19;;;;;;;;;;;;;;;;;;5099998;28;19908;-71
2023/04/20 14:51:45;;;;;;;;;;;;;;;;;;5096574;28;20419;-68
2023/04/20 14:54:11;;;;;;;;;;;;;;;;;;5096276;28;20233;-69
2023/04/20 14:56:37;;;;;;;;;;;;;;;;;;5096618;28;20023;-68
2023/04/20 14:59:03;;;;;;;;;;;;;;;;;;5096577;28;19919;-68
2023/04/20 15:01:29;;;;;;;;;;;;;;;;;;5077928;28;20284;-69
2023/04/20 15:03:55;;;;;;;;;;;;;;;;;;5096432;28;19915;-69
2023/04/20 15:06:21;;;;;;;;;;;;;;;;;;5096365;28;19973;-68
2023/04/20 15:08:47;;;;;;;;;;;;;;;;;;5096004;28;19915;-69
2023/04/20 15:11:13;;;;;;;;;;;;;;;;;;5096375;28;20049;-69
2023/04/20 15:13:41;;;;;;;;;;;;;;;;;;5096627;28;19908;-69
2023/04/20 15:16:07;;;;;;;;;;;;;;;;;;5095766;28;19908;-69
2023/04/20 15:18:33;;;;;;;;;;;;;;;;;;5096407;28;20324;-69
2023/04/20 15:20:59;;;;;;;;;;;;;;;;;;5096146;28;19961;-69
2023/04/20 15:23:25;;;;;;;;;;;;;;;;;;5095687;28;20326;-69
2023/04/20 15:25:51;;;;;;;;;;;;;;;;;;5096560;28;19909;-68
2023/04/20 15:28:17;;;;;;;;;;;;;;;;;;5095918;28;19916;-68
2023/04/20 15:30:43;;;;;;;;;;;;;;;;;;5095429;28;20284;-69
2023/04/20 15:33:09;;;;;;;;;;;;;;;;;;5095851;28;20287;-69
2023/04/20 15:35:35;;;;;;;;;;;;;;;;;;5095759;28;19908;-69
2023/04/20 15:39:46;;;;;;;;;;;;;;;;;;5091498;28;19912;-69
2023/04/20 15:42:12;;;;;;;;;;;;;;;;;;5091759;28;20003;-68
2023/04/20 15:44:40;;;;;;;;;;;;;;;;;;5091443;28;19962;-68
2023/04/20 15:47:06;;;;;;;;;;;;;;;;;;5091182;28;19920;-69
2023/04/20 15:49:34;;;;;;;;;;;;;;;;;;5091049;28;19961;-70
2023/04/20 15:52:00;;;;;;;;;;;;;;;;;;5090717;28;19909;-71
2023/04/20 15:54:26;;;;;;;;;;;;;;;;;;5090941;28;19962;-70
2023/04/20 15:56:52;;;;;;;;;;;;;;;;;;5090976;28;19908;-68
2023/04/20 16:01:09;;;;;;;;;;;;;;;;;;5111707;27;19912;-69
2023/04/20 16:03:35;;;;;;;;;;;;;;;;;;5111654;28;20261;-68
2023/04/20 16:06:01;;;;;;;;;;;;;;;;;;5111367;28;20368;-69
2023/04/20 16:08:27;;;;;;;;;;;;;;;;;;5111867;28;19915;-69
2023/04/20 16:10:53;;;;;;;;;;;;;;;;;;5111589;28;19955;-69
2023/04/20 16:13:19;;;;;;;;;;;;;;;;;;5111200;28;19954;-69
2023/04/20 16:16:53;;;;;;;;;;;;;;;;;;5092181;27;19919;-70
2023/04/20 16:19:19;;;;;;;;;;;;;;;;;;5089619;28;20257;-71
2023/04/20 16:21:45;;;;;;;;;;;;;;;;;;5091598;28;19954;-69
2023/04/20 16:24:11;;;;;;;;;;;;;;;;;;5089904;28;20360;-70
2023/04/20 16:26:37;;;;;;;;;;;;;;;;;;5090855;28;19978;-69
2023/04/20 16:30:00;;;;;;;;;;;;;;;;;;5092168;27;19916;-70
2023/04/20 16:32:26;;;;;;;;;;;;;;;;;;5091452;28;20007;-70
2023/04/20 16:34:52;;;;;;;;;;;;;;;;;;5090928;28;20292;-69
2023/04/20 16:38:13;;;;;;;;;;;;;;;;;;5092142;27;19916;-69
2023/04/20 16:40:38;;;;;;;;;;;;;;;;;;5091242;28;19912;-68
2023/04/20 16:43:04;;;;;;;;;;;;;;;;;;5091135;28;19988;-68
2023/04/20 16:45:30;;;;;;;;;;;;;;;;;;5091154;28;19908;-68
2023/04/20 16:47:56;;;;;;;;;;;;;;;;;;5089386;28;19915;-69
2023/04/20 16:50:22;;;;;;;;;;;;;;;;;;5091153;28;19913;-68
2023/04/20 16:52:48;;;;;;;;;;;;;;;;;;5091066;28;20365;-67
2023/04/20 17:00:31;;;;;;;;;;;;;;;;;;5112230;27;19916;-71
2023/04/20 17:06:55;;;;;;;;;;;;;;;;;;5091654;27;20292;-68
2023/04/20 17:09:21;;;;;;;;;;;;;;;;;;5087694;28;19919;-69
2023/04/20 17:11:47;;;;;;;;;;;;;;;;;;5091599;28;20299;-69
2023/04/20 17:14:13;;;;;;;;;;;;;;;;;;5091520;28;20340;-68
2023/04/20 17:16:39;;;;;;;;;;;;;;;;;;5090701;28;19974;-67
2023/04/20 17:19:05;;;;;;;;;;;;;;;;;;5091178;28;19912;-69
2023/04/20 17:21:31;;;;;;;;;;;;;;;;;;5091113;28;19908;-68
2023/04/20 17:23:57;;;;;;;;;;;;;;;;;;5090670;28;20320;-68
2023/04/20 17:28:14;;;;;;;;;;;;;;;;;;5091255;27;19919;-68
2023/04/20 17:30:40;;;;;;;;;;;;;;;;;;5089751;28;20003;-68
2023/04/20 17:33:07;;;;;;;;;;;;;;;;;;5077276;28;19909;-69
2023/04/20 17:35:33;;;;;;;;;;;;;;;;;;5071024;28;19913;-69
2023/04/20 17:37:59;;;;;;;;;;;;;;;;;;5070617;28;20325;-68
2023/04/20 17:40:25;;;;;;;;;;;;;;;;;;5071012;28;19912;-70
2023/04/20 17:42:50;;;;;;;;;;;;;;;;;;5069650;28;19965;-69
2023/04/20 17:48:09;;;;;;;;;;;;;;;;;;5091841;27;19916;-68
2023/04/20 17:50:35;;;;;;;;;;;;;;;;;;5089653;28;19994;-69
2023/04/20 17:53:05;;;;;;;;;;;;;;;;;;5091247;28;20328;-69
2023/04/20 17:55:31;;;;;;;;;;;;;;;;;;5091325;28;20008;-69
2023/04/20 17:59:32;;;;;;;;;;;;;;;;;;5092228;27;19916;-68
2023/04/20 18:01:58;;;;;;;;;;;;;;;;;;5091260;28;20333;-68
2023/04/20 18:04:24;;;;;;;;;;;;;;;;;;5090363;28;19913;-69
2023/04/20 18:06:50;;;;;;;;;;;;;;;;;;5091342;28;20007;-69
2023/04/20 18:09:16;;;;;;;;;;;;;;;;;;5090879;28;19962;-70
2023/04/20 18:11:42;;;;;;;;;;;;;;;;;;5090752;28;19912;-68
2023/04/20 18:14:08;;;;;;;;;;;;;;;;;;5091028;28;19977;-68
2023/04/20 18:17:14;;;;;;;;;;;;;;;;;;5091418;28;19916;-68
2023/04/20 18:20:24;;;;;;;;;;;;;;;;;;5111333;27;19915;-66
2023/04/20 18:25:05;;;;;;;;;;;;;;;;;;5090962;27;20295;-69
2023/04/20 18:27:31;;;;;;;;;;;;;;;;;;5090500;28;20007;-69
2023/04/20 18:30:00;;;;;;;;;;;;;;;;;;5091741;28;19912;-69
2023/04/20 18:32:26;;;;;;;;;;;;;;;;;;5090683;28;19908;-69
2023/04/20 18:34:52;;;;;;;;;;;;;;;;;;5091233;28;20414;-69
2023/04/20 18:37:18;;;;;;;;;;;;;;;;;;5091165;28;20284;-69